Map

Track Data

SID SEASON NUMBER BASIN SUBBASIN NAME ISO_TIME NATURE LAT LON WMO_WIND WMO_PRES WMO_AGENCY TRACK_TYPE DIST2LAND LANDFALL IFLAG USA_AGENCY USA_ATCF_ID USA_LAT USA_LON USA_RECORD USA_STATUS USA_WIND USA_PRES USA_SSHS USA_R34_NE USA_R34_SE USA_R34_SW USA_R34_NW USA_R50_NE USA_R50_SE USA_R50_SW USA_R50_NW USA_R64_NE USA_R64_SE USA_R64_SW USA_R64_NW USA_POCI USA_ROCI USA_RMW USA_EYE TOKYO_LAT TOKYO_LON TOKYO_GRADE TOKYO_WIND TOKYO_PRES TOKYO_R50_DIR TOKYO_R50_LONG TOKYO_R50_SHORT TOKYO_R30_DIR TOKYO_R30_LONG TOKYO_R30_SHORT TOKYO_LAND CMA_LAT CMA_LON CMA_CAT CMA_WIND CMA_PRES HKO_LAT HKO_LON HKO_CAT HKO_WIND HKO_PRES NEWDELHI_LAT NEWDELHI_LON NEWDELHI_GRADE NEWDELHI_WIND NEWDELHI_PRES NEWDELHI_CI NEWDELHI_DP NEWDELHI_POCI REUNION_LAT REUNION_LON REUNION_TYPE REUNION_WIND REUNION_PRES REUNION_TNUM REUNION_CI REUNION_RMW REUNION_R34_NE REUNION_R34_SE REUNION_R34_SW REUNION_R34_NW REUNION_R50_NE REUNION_R50_SE REUNION_R50_SW REUNION_R50_NW REUNION_R64_NE REUNION_R64_SE REUNION_R64_SW REUNION_R64_NW BOM_LAT BOM_LON BOM_TYPE BOM_WIND BOM_PRES BOM_TNUM BOM_CI BOM_RMW BOM_R34_NE BOM_R34_SE BOM_R34_SW BOM_R34_NW BOM_R50_NE BOM_R50_SE BOM_R50_SW BOM_R50_NW BOM_R64_NE BOM_R64_SE BOM_R64_SW BOM_R64_NW BOM_ROCI BOM_POCI BOM_EYE BOM_POS_METHOD BOM_PRES_METHOD NADI_LAT NADI_LON NADI_CAT NADI_WIND NADI_PRES WELLINGTON_LAT WELLINGTON_LON WELLINGTON_WIND WELLINGTON_PRES DS824_LAT DS824_LON DS824_STAGE DS824_WIND DS824_PRES TD9636_LAT TD9636_LON TD9636_STAGE TD9636_WIND TD9636_PRES TD9635_LAT TD9635_LON TD9635_WIND TD9635_PRES TD9635_ROCI NEUMANN_LAT NEUMANN_LON NEUMANN_CLASS NEUMANN_WIND NEUMANN_PRES MLC_LAT MLC_LON MLC_CLASS MLC_WIND MLC_PRES USA_GUST BOM_GUST BOM_GUST_PER REUNION_GUST REUNION_GUST_PER USA_SEAHGT USA_SEARAD_NE USA_SEARAD_SE USA_SEARAD_SW USA_SEARAD_NW STORM_SPEED STORM_DIR
1907299N15126 1907 56 WP MM NOT_NAMED 1907-10-25 16:00:00 NR 14.7000 125.600 main 157 95 __________O___ -1 14.7000 125.600 7 29 278
1907299N15126 1907 56 WP MM NOT_NAMED 1907-10-25 18:00:00 NR 14.8337 124.615 main 95 92 __________P___ -1 14.8337 124.615 7 28 278
1907299N15126 1907 56 WP MM NOT_NAMED 1907-10-25 21:00:00 NR 15.0236 123.174 main 95 39 __________P___ -1 15.0236 123.174 7 27 278
1907299N15126 1907 56 WP MM NOT_NAMED 1907-10-26 00:00:00 NR 15.1974 121.831 main 39 0 __________P___ -1 15.1974 121.831 7 25 278
1907299N15126 1907 56 WP MM NOT_NAMED 1907-10-26 03:00:00 NR 15.3526 120.648 main 0 0 __________P___ -1 15.3526 120.648 7 22 278
1907299N15126 1907 56 WP MM NOT_NAMED 1907-10-26 04:00:00 NR 15.4000 120.300 main 0 0 __________O___ -1 15.4000 120.300 4 19 278
1907299N15126 1907 56 WP MM NOT_NAMED 1907-10-26 06:00:00 NR 15.4887 119.679 main 24 34 __________P___ -1 15.4887 119.679 4 16 279
1907299N15126 1907 56 WP MM NOT_NAMED 1907-10-26 09:00:00 NR 15.6120 118.900 main 96 96 __________P___ -1 15.6120 118.900 4 14 280
1907299N15126 1907 56 WP MM NOT_NAMED 1907-10-26 12:00:00 NR 15.7318 118.236 main 163 163 __________P___ -1 15.7318 118.236 4 13 281
1907299N15126 1907 56 WP MM NOT_NAMED 1907-10-26 15:00:00 NR 15.8562 117.612 main 224 224 __________P___ -1 15.8562 117.612 4 12 282
1907299N15126 1907 56 WP MM NOT_NAMED 1907-10-26 16:00:00 NR 15.9000 117.400 main 246 246 __________O___ -1 15.9000 117.400 4 14 281
1907299N15126 1907 56 WP MM NOT_NAMED 1907-10-26 18:00:00 NR 15.9940 116.906 main 299 299 __________P___ -1 15.9940 116.906 4 15 282
1907299N15126 1907 56 WP MM NOT_NAMED 1907-10-26 21:00:00 NR 16.1416 116.165 main 374 384 __________P___ -1 16.1416 116.165 4 14 282
1907299N15126 1907 56 WP MM NOT_NAMED 1907-10-27 00:00:00 NR 16.2942 115.435 main 460 460 __________P___ -1 16.2942 115.435 4 14 283
1907299N15126 1907 56 WP MM NOT_NAMED 1907-10-27 03:00:00 NR 16.4487 114.728 main 519 495 __________P___ -1 16.4487 114.728 4 14 283
1907299N15126 1907 56 WP MM NOT_NAMED 1907-10-27 04:00:00 NR 16.5000 114.500 main 495 453 __________O___ -1 16.5000 114.500 4 13 283
1907299N15126 1907 56 WP MM NOT_NAMED 1907-10-27 06:00:00 NR 16.5914 114.060 main 453 386 __________P___ -1 16.5914 114.060 4 13 283
1907299N15126 1907 56 WP MM NOT_NAMED 1907-10-27 09:00:00 NR 16.7288 113.426 main 386 323 __________P___ -1 16.7288 113.426 4 12 283
1907299N15126 1907 56 WP MM NOT_NAMED 1907-10-27 12:00:00 NR 16.8752 112.811 main 323 269 __________P___ -1 16.8752 112.811 4 12 285
1907299N15126 1907 56 WP MM NOT_NAMED 1907-10-27 15:00:00 NR 17.0396 112.203 main 269 246 __________P___ -1 17.0396 112.203 4 12 286
1907299N15126 1907 56 WP MM NOT_NAMED 1907-10-27 16:00:00 NR 17.1000 112.000 main 246 204 __________O___ -1 17.1000 112.000 4 13 286
1907299N15126 1907 56 WP MM NOT_NAMED 1907-10-27 18:00:00 NR 17.2202 111.534 main 204 140 __________P___ -1 17.2202 111.534 4 14 286
1907299N15126 1907 56 WP MM NOT_NAMED 1907-10-27 21:00:00 NR 17.4191 110.833 main 140 85 __________P___ -1 17.4191 110.833 4 14 288
1907299N15126 1907 56 WP MM NOT_NAMED 1907-10-28 00:00:00 NR 17.6453 110.184 main 85 33 __________P___ -1 17.6453 110.184 4 12 293
1907299N15126 1907 56 WP MM NOT_NAMED 1907-10-28 03:00:00 NR 17.9049 109.645 main 33 22 __________P___ -1 17.9049 109.645 4 11 299
1907299N15126 1907 56 WP MM NOT_NAMED 1907-10-28 04:00:00 NR 18.0000 109.500 main 22 15 __________O___ -1 18.0000 109.500 4 10 310
1907299N15126 1907 56 WP MM NOT_NAMED 1907-10-28 06:00:00 NR 18.2091 109.257 main 21 0 __________P___ -1 18.2091 109.257 4 9 320
1907299N15126 1907 56 WP MM NOT_NAMED 1907-10-28 09:00:00 NR 18.5552 109.013 main 0 0 __________P___ -1 18.5552 109.013 4 8 334
1907299N15126 1907 56 WP MM NOT_NAMED 1907-10-28 12:00:00 NR 18.9208 108.894 main 0 0 __________P___ -1 18.9208 108.894 4 7 350
1907299N15126 1907 56 WP MM NOT_NAMED 1907-10-28 15:00:00 NR 19.2836 108.883 main 0 0 __________P___ -1 19.2836 108.883 4 7 3
1907299N15126 1907 56 WP MM NOT_NAMED 1907-10-28 16:00:00 NR 19.4000 108.900 main 0 0 __________O___ -1 19.4000 108.900 4 6 358
1907299N15126 1907 56 WP MM NOT_NAMED 1907-10-28 18:00:00 NR 19.5974 108.878 main 11 11 __________P___ -1 19.5974 108.878 4 6 3
1907299N15126 1907 56 WP MM NOT_NAMED 1907-10-28 21:00:00 NR 19.8806 108.925 main 38 38 __________P___ -1 19.8806 108.925 4 6 20
1907299N15126 1907 56 WP MM NOT_NAMED 1907-10-29 00:00:00 NR 20.1689 109.101 main 49 41 __________P___ -1 20.1689 109.101 4 8 39
1907299N15126 1907 56 WP MM NOT_NAMED 1907-10-29 03:00:00 NR 20.4848 109.443 main 41 20 __________P___ -1 20.4848 109.443 4 10 47
1907299N15126 1907 56 WP MM NOT_NAMED 1907-10-29 04:00:00 NR 20.6000 109.600 main 20 0 __________O___ -1 20.6000 109.600 2 13 52
1907299N15126 1907 56 WP MM NOT_NAMED 1907-10-29 06:00:00 NR 20.8817 109.976 main 0 0 __________P___ -1 20.8817 109.976 2 15 54
1907299N15126 1907 56 WP MM NOT_NAMED 1907-10-29 09:00:00 NR 21.3359 110.698 main 0 0 __________P___ -1 21.3359 110.698 2 17 58
1907299N15126 1907 56 WP MM NOT_NAMED 1907-10-29 12:00:00 NR 21.7860 111.555 main 0 0 __________P___ -1 21.7860 111.555 2 19 63
1907299N15126 1907 56 WP MM NOT_NAMED 1907-10-29 15:00:00 NR 22.1858 112.485 main 0 0 __________P___ -1 22.1858 112.485 2 19 66
1907299N15126 1907 56 WP MM NOT_NAMED 1907-10-29 16:00:00 NR 22.3000 112.800 main 0 0 __________O___ -1 22.3000 112.800 2 18 71
1907299N15126 1907 56 WP MM NOT_NAMED 1907-10-29 18:00:00 NR 22.4935 113.426 main 0 0 __________P___ -1 22.4935 113.426 2 18 74
1907299N15126 1907 56 WP MM NOT_NAMED 1907-10-29 21:00:00 NR 22.7092 114.356 main 0 0 __________P___ -1 22.7092 114.356 2 17 78
1907299N15126 1907 56 WP MM NOT_NAMED 1907-10-30 00:00:00 NR 22.8586 115.278 main 0 0 __________P___ -1 22.8586 115.278 2 17 81
1907299N15126 1907 56 WP MM NOT_NAMED 1907-10-30 03:00:00 NR 22.9679 116.195 main 0 0 __________P___ -1 22.9679 116.195 2 17 83
1907299N15126 1907 56 WP MM NOT_NAMED 1907-10-30 04:00:00 NR 23.0000 116.500 main 0 __________O___ -1 23.0000 116.500 2 17 83

Digital Typhoon Data and Search

About IBTrACS Database

This database is a web-friendly format of International Best Track Archive for Climate Stewardship (IBTrACS), a global best track data archive curated by NOAA dating back to 1842.

Updated: 2021-11-26